createdAt,value
2016-07-24T00:00:45.757Z,956.72
2016-07-24T00:01:45.784Z,956.72
2016-07-24T00:02:45.812Z,956.72
2016-07-24T00:03:45.840Z,956.66
2016-07-24T00:04:45.879Z,956.69
2016-07-24T00:05:45.897Z,956.71
2016-07-24T00:06:45.926Z,956.67
2016-07-24T00:07:45.953Z,956.64
2016-07-24T00:08:45.982Z,956.63
2016-07-24T00:09:46.010Z,956.65
2016-07-24T00:10:46.632Z,956.64
2016-07-24T00:11:46.066Z,956.66
2016-07-24T00:12:46.096Z,956.63
2016-07-24T00:13:46.122Z,956.66
2016-07-24T00:14:46.151Z,956.66
2016-07-24T00:15:46.178Z,956.66
2016-07-24T00:16:46.209Z,956.64
2016-07-24T00:17:46.234Z,956.67
2016-07-24T00:18:46.263Z,956.63
2016-07-24T00:19:46.291Z,956.65
2016-07-24T00:20:46.319Z,956.7
2016-07-24T00:21:46.347Z,956.7
2016-07-24T00:22:46.386Z,956.67
2016-07-24T00:23:46.403Z,956.68
2016-07-24T00:24:46.434Z,956.72
2016-07-24T00:25:46.461Z,956.73
2016-07-24T00:26:46.487Z,956.68
2016-07-24T00:27:46.517Z,956.67
2016-07-24T00:28:46.546Z,956.7
2016-07-24T00:29:46.574Z,956.69
2016-07-24T00:30:46.602Z,956.68
2016-07-24T00:31:46.630Z,956.69
2016-07-24T00:32:46.660Z,956.67
2016-07-24T00:33:46.687Z,956.68
2016-07-24T00:34:46.715Z,956.66
2016-07-24T00:35:46.743Z,956.67
2016-07-24T00:36:46.772Z,956.68
2016-07-24T00:37:46.799Z,956.64
2016-07-24T00:38:46.829Z,956.66
2016-07-24T00:39:46.856Z,956.63
2016-07-24T00:40:46.885Z,956.58
2016-07-24T00:41:46.914Z,956.6
2016-07-24T00:42:46.943Z,956.58
2016-07-24T00:43:46.970Z,956.58
2016-07-24T00:44:46.998Z,956.54
2016-07-24T00:45:47.028Z,956.55
2016-07-24T00:46:47.056Z,956.54
2016-07-24T00:47:47.086Z,956.54
2016-07-24T00:48:47.113Z,956.5
2016-07-24T00:49:47.141Z,956.51
2016-07-24T00:50:47.169Z,956.54
2016-07-24T00:51:47.198Z,956.52
2016-07-24T00:52:47.243Z,956.47
2016-07-24T00:53:47.255Z,956.52
2016-07-24T00:54:47.284Z,956.48
2016-07-24T00:55:47.311Z,956.53
2016-07-24T00:56:47.340Z,956.5
2016-07-24T00:57:47.368Z,956.48
2016-07-24T00:58:47.397Z,956.51
2016-07-24T00:59:47.425Z,956.5
2016-07-24T01:00:47.551Z,956.44
2016-07-24T01:01:47.482Z,956.47
2016-07-24T01:02:47.511Z,956.46
2016-07-24T01:03:47.538Z,956.47
2016-07-24T01:04:47.566Z,956.45
2016-07-24T01:05:47.596Z,956.45
2016-07-24T01:06:47.623Z,956.48
2016-07-24T01:07:47.653Z,956.48
2016-07-24T01:08:47.681Z,956.51
2016-07-24T01:09:47.708Z,956.46
2016-07-24T01:10:47.740Z,956.52
2016-07-24T01:11:47.766Z,956.51
2016-07-24T01:12:47.792Z,956.49
2016-07-24T01:13:47.827Z,956.52
2016-07-24T01:14:47.851Z,956.47
2016-07-24T01:15:47.880Z,956.51
2016-07-24T01:16:47.911Z,956.47
2016-07-24T01:17:47.937Z,956.46
2016-07-24T01:18:47.966Z,956.44
2016-07-24T01:19:47.992Z,956.43
2016-07-24T01:20:48.022Z,956.43
2016-07-24T01:21:48.052Z,956.44
2016-07-24T01:22:48.077Z,956.41
2016-07-24T01:23:48.107Z,956.38
2016-07-24T01:24:48.136Z,956.38
2016-07-24T01:25:48.163Z,956.41
2016-07-24T01:26:48.192Z,956.39
2016-07-24T01:27:48.219Z,956.38
2016-07-24T01:28:48.247Z,956.4
2016-07-24T01:29:48.276Z,956.39
2016-07-24T01:30:48.305Z,956.37
2016-07-24T01:31:48.334Z,956.4
2016-07-24T01:32:48.361Z,956.39
2016-07-24T01:33:48.390Z,956.4
2016-07-24T01:34:48.419Z,956.39
2016-07-24T01:35:48.447Z,956.37
2016-07-24T01:36:48.474Z,956.39
2016-07-24T01:37:48.502Z,956.39
2016-07-24T01:38:48.533Z,956.41
2016-07-24T01:39:48.559Z,956.36
2016-07-24T01:40:48.589Z,956.36
2016-07-24T01:41:48.643Z,956.34
2016-07-24T01:42:48.646Z,956.39
2016-07-24T01:43:48.673Z,956.34
2016-07-24T01:44:48.703Z,956.36
2016-07-24T01:45:48.730Z,956.36
2016-07-24T01:46:48.760Z,956.38
2016-07-24T01:47:48.787Z,956.36
2016-07-24T01:48:48.816Z,956.35
2016-07-24T01:49:48.856Z,956.37
2016-07-24T01:50:48.875Z,956.34
2016-07-24T01:51:48.909Z,956.36
2016-07-24T01:52:48.931Z,956.36
2016-07-24T01:53:48.959Z,956.35
2016-07-24T01:54:48.986Z,956.36
2016-07-24T01:55:49.020Z,956.37
2016-07-24T01:56:49.044Z,956.35
2016-07-24T01:57:49.074Z,956.31
2016-07-24T01:58:49.101Z,956.34
2016-07-24T01:59:49.150Z,956.35
2016-07-24T02:00:49.159Z,956.37
2016-07-24T02:01:49.186Z,956.37
2016-07-24T02:02:49.215Z,956.35
2016-07-24T02:03:49.244Z,956.36
2016-07-24T02:04:49.273Z,956.34
2016-07-24T02:05:49.307Z,956.35
2016-07-24T02:06:49.330Z,956.32
2016-07-24T02:07:49.358Z,956.35
2016-07-24T02:08:49.388Z,956.33
2016-07-24T02:09:49.414Z,956.32
2016-07-24T02:10:49.444Z,956.34
2016-07-24T02:11:49.474Z,956.33
2016-07-24T02:12:49.500Z,956.32
2016-07-24T02:13:49.527Z,956.37
2016-07-24T02:14:49.558Z,956.32
2016-07-24T02:15:49.587Z,956.35
2016-07-24T02:16:49.614Z,956.37
2016-07-24T02:17:49.643Z,956.36
2016-07-24T02:18:49.672Z,956.38
2016-07-24T02:19:49.699Z,956.34
2016-07-24T02:20:49.729Z,956.37
2016-07-24T02:21:49.759Z,956.37
2016-07-24T02:22:49.786Z,956.37
2016-07-24T02:23:49.814Z,956.37
2016-07-24T02:24:49.842Z,956.4
2016-07-24T02:25:49.871Z,956.38
2016-07-24T02:26:49.900Z,956.39
2016-07-24T02:27:49.928Z,956.41
2016-07-24T02:28:49.957Z,956.38
2016-07-24T02:29:50.004Z,956.39
2016-07-24T02:30:50.015Z,956.41
2016-07-24T02:31:50.040Z,956.41
2016-07-24T02:32:50.071Z,956.37
2016-07-24T02:33:50.100Z,956.37
2016-07-24T02:34:50.127Z,956.42
2016-07-24T02:35:50.155Z,956.36
2016-07-24T02:36:50.185Z,956.33
2016-07-24T02:37:50.309Z,956.34
2016-07-24T02:38:50.241Z,956.35
2016-07-24T02:39:50.270Z,956.33
2016-07-24T02:40:50.300Z,956.34
2016-07-24T02:41:50.326Z,956.32
2016-07-24T02:42:50.355Z,956.37
2016-07-24T02:43:50.386Z,956.31
2016-07-24T02:44:50.412Z,956.33
2016-07-24T02:45:50.448Z,956.34
2016-07-24T02:46:50.470Z,956.33
2016-07-24T02:47:50.499Z,956.34
2016-07-24T02:48:50.528Z,956.34
2016-07-24T02:49:50.557Z,956.36
2016-07-24T02:50:50.584Z,956.33
2016-07-24T02:51:50.611Z,956.35
2016-07-24T02:52:50.642Z,956.37
2016-07-24T02:53:50.715Z,956.38
2016-07-24T02:54:50.700Z,956.41
2016-07-24T02:55:50.726Z,956.4
2016-07-24T02:56:50.758Z,956.39
2016-07-24T02:57:50.785Z,956.41
2016-07-24T02:58:50.813Z,956.35
2016-07-24T02:59:50.844Z,956.4
2016-07-24T03:00:50.870Z,956.35
2016-07-24T03:01:50.898Z,956.37
2016-07-24T03:02:50.927Z,956.3
2016-07-24T03:03:50.957Z,956.31
2016-07-24T03:04:50.985Z,956.3
2016-07-24T03:05:51.013Z,956.34
2016-07-24T03:06:51.044Z,956.3
2016-07-24T03:07:51.069Z,956.31
2016-07-24T03:08:51.097Z,956.3
2016-07-24T03:09:51.127Z,956.29
2016-07-24T03:10:51.158Z,956.26
2016-07-24T03:11:51.185Z,956.3
2016-07-24T03:12:51.214Z,956.3
2016-07-24T03:13:51.243Z,956.3
2016-07-24T03:14:51.269Z,956.29
2016-07-24T03:15:51.298Z,956.27
2016-07-24T03:16:51.327Z,956.27
2016-07-24T03:17:51.360Z,956.31
2016-07-24T03:18:51.402Z,956.29
2016-07-24T03:19:51.412Z,956.29
2016-07-24T03:20:51.441Z,956.3
2016-07-24T03:21:51.468Z,956.27
2016-07-24T03:22:51.498Z,956.29
2016-07-24T03:23:51.529Z,956.29
2016-07-24T03:24:51.556Z,956.3
2016-07-24T03:25:51.584Z,956.32
2016-07-24T03:26:51.618Z,956.29
2016-07-24T03:27:51.640Z,956.3
2016-07-24T03:28:51.673Z,956.29
2016-07-24T03:29:51.697Z,956.32
2016-07-24T03:30:51.727Z,956.28
2016-07-24T03:31:51.755Z,956.26
2016-07-24T03:32:51.782Z,956.28
2016-07-24T03:33:51.815Z,956.27
2016-07-24T03:34:51.839Z,956.27
2016-07-24T03:35:51.869Z,956.28
2016-07-24T03:36:51.897Z,956.29
2016-07-24T03:37:51.926Z,956.29
2016-07-24T03:38:51.955Z,956.3
2016-07-24T03:39:51.984Z,956.28
2016-07-24T03:40:52.009Z,956.31
2016-07-24T03:41:52.039Z,956.29
2016-07-24T03:42:52.077Z,956.31
2016-07-24T03:43:52.099Z,956.34
2016-07-24T03:44:52.123Z,956.3
2016-07-24T03:45:52.153Z,956.3
2016-07-24T03:46:52.180Z,956.31
2016-07-24T03:47:52.210Z,956.29
2016-07-24T03:48:52.237Z,956.31
2016-07-24T03:49:52.267Z,956.31
2016-07-24T03:50:52.300Z,956.3
2016-07-24T03:51:52.324Z,956.34
2016-07-24T03:52:52.354Z,956.32
2016-07-24T03:53:52.381Z,956.35
2016-07-24T03:54:52.409Z,956.33
2016-07-24T03:55:52.436Z,956.34
2016-07-24T03:56:52.464Z,956.36
2016-07-24T03:57:52.496Z,956.39
2016-07-24T03:58:52.547Z,956.38
2016-07-24T03:59:52.553Z,956.41
2016-07-24T04:00:52.580Z,956.43
2016-07-24T04:01:52.610Z,956.42
2016-07-24T04:02:52.641Z,956.42
2016-07-24T04:03:52.668Z,956.44
2016-07-24T04:04:52.695Z,956.45
2016-07-24T04:05:52.726Z,956.47
2016-07-24T04:06:52.762Z,956.45
2016-07-24T04:07:52.779Z,956.44
2016-07-24T04:08:52.810Z,956.48
2016-07-24T04:09:52.837Z,956.47
2016-07-24T04:10:52.877Z,956.49
2016-07-24T04:11:52.894Z,956.47
2016-07-24T04:12:52.926Z,956.5
2016-07-24T04:13:52.951Z,956.49
2016-07-24T04:14:52.981Z,956.55
2016-07-24T04:15:53.010Z,956.54
2016-07-24T04:16:53.042Z,956.55
2016-07-24T04:17:53.066Z,956.54
2016-07-24T04:18:53.097Z,956.53
2016-07-24T04:19:53.125Z,956.51
2016-07-24T04:20:53.154Z,956.58
2016-07-24T04:21:53.180Z,956.6
2016-07-24T04:22:53.210Z,956.59
2016-07-24T04:23:53.237Z,956.6
2016-07-24T04:24:53.264Z,956.64
2016-07-24T04:25:53.293Z,956.59
2016-07-24T04:26:53.323Z,956.63
2016-07-24T04:27:53.352Z,956.61
2016-07-24T04:28:53.382Z,956.65
2016-07-24T04:29:53.409Z,956.64
2016-07-24T04:30:53.436Z,956.63
2016-07-24T04:31:53.466Z,956.72
2016-07-24T04:32:53.495Z,956.72
2016-07-24T04:33:53.523Z,956.74
2016-07-24T04:34:53.551Z,956.72
2016-07-24T04:35:53.580Z,956.71
2016-07-24T04:36:53.608Z,956.72
2016-07-24T04:37:53.636Z,956.71
2016-07-24T04:38:53.663Z,956.72
2016-07-24T04:39:53.696Z,956.69
2016-07-24T04:40:53.726Z,956.69
2016-07-24T04:41:53.751Z,956.7
2016-07-24T04:42:53.778Z,956.73
2016-07-24T04:43:53.812Z,956.73
2016-07-24T04:44:53.836Z,956.72
2016-07-24T04:45:53.865Z,956.71
2016-07-24T04:46:53.894Z,956.75
2016-07-24T04:47:53.944Z,956.72
2016-07-24T04:48:53.950Z,956.71
2016-07-24T04:49:53.978Z,956.74
2016-07-24T04:50:54.008Z,956.75
2016-07-24T04:51:54.036Z,956.79
2016-07-24T04:52:54.066Z,956.78
2016-07-24T04:53:54.093Z,956.79
2016-07-24T04:54:54.122Z,956.76
2016-07-24T04:55:54.160Z,956.76
2016-07-24T04:56:54.178Z,956.75
2016-07-24T04:57:54.206Z,956.73
2016-07-24T04:58:54.233Z,956.71
2016-07-24T04:59:54.263Z,956.71
2016-07-24T05:00:54.291Z,956.71
2016-07-24T05:01:54.321Z,956.71
2016-07-24T05:02:54.351Z,956.71
2016-07-24T05:03:54.377Z,956.69
2016-07-24T05:04:54.404Z,956.71
2016-07-24T05:05:54.434Z,956.7
2016-07-24T05:06:54.464Z,956.68
2016-07-24T05:07:54.491Z,956.73
2016-07-24T05:08:54.519Z,956.75
2016-07-24T05:09:54.548Z,956.73
2016-07-24T05:10:54.577Z,956.75
2016-07-24T05:11:54.605Z,956.71
2016-07-24T05:12:54.634Z,956.71
2016-07-24T05:13:54.663Z,956.71
2016-07-24T05:14:54.691Z,956.73
2016-07-24T05:15:54.719Z,956.74
2016-07-24T05:16:54.747Z,956.76
2016-07-24T05:17:54.777Z,956.76
2016-07-24T05:18:54.805Z,956.76
2016-07-24T05:19:54.849Z,956.76
2016-07-24T05:20:54.861Z,956.73
2016-07-24T05:21:54.891Z,956.76
2016-07-24T05:22:54.918Z,956.71
2016-07-24T05:23:54.948Z,956.77
2016-07-24T05:24:54.976Z,956.73
2016-07-24T05:25:55.006Z,956.79
2016-07-24T05:26:55.034Z,956.8
2016-07-24T05:27:55.063Z,956.78
2016-07-24T05:28:55.092Z,956.75
2016-07-24T05:29:55.121Z,956.79
2016-07-24T05:30:55.149Z,956.77
2016-07-24T05:31:55.177Z,956.75
2016-07-24T05:32:55.207Z,956.77
2016-07-24T05:33:55.235Z,956.75
2016-07-24T05:34:55.264Z,956.74
2016-07-24T05:35:55.304Z,956.79
2016-07-24T05:36:55.321Z,956.79
2016-07-24T05:37:55.350Z,956.8
2016-07-24T05:38:55.377Z,956.77
2016-07-24T05:39:55.408Z,956.81
2016-07-24T05:40:55.435Z,956.79
2016-07-24T05:41:55.465Z,956.78
2016-07-24T05:42:55.493Z,956.77
2016-07-24T05:43:55.523Z,956.81
2016-07-24T05:44:55.550Z,956.81
2016-07-24T05:45:55.580Z,956.8
2016-07-24T05:46:55.609Z,956.84
2016-07-24T05:47:55.636Z,956.81
2016-07-24T05:48:55.664Z,956.82
2016-07-24T05:49:55.697Z,956.78
2016-07-24T05:50:55.724Z,956.85
2016-07-24T05:51:55.754Z,956.86
2016-07-24T05:52:55.780Z,956.85
2016-07-24T05:53:55.810Z,956.81
2016-07-24T05:54:55.839Z,956.83
2016-07-24T05:55:55.868Z,956.82
2016-07-24T05:56:55.897Z,956.83
2016-07-24T05:57:55.926Z,956.81
2016-07-24T05:58:55.955Z,956.79
2016-07-24T05:59:55.986Z,956.79
2016-07-24T06:00:56.013Z,956.81
2016-07-24T06:01:56.043Z,956.77
2016-07-24T06:02:56.072Z,956.75
2016-07-24T06:03:56.101Z,956.76
2016-07-24T06:04:56.130Z,956.78
2016-07-24T06:05:56.160Z,956.78
2016-07-24T06:06:56.188Z,956.79
2016-07-24T06:07:56.217Z,956.79
2016-07-24T06:08:56.273Z,956.83
2016-07-24T06:09:56.276Z,956.77
2016-07-24T06:10:56.303Z,956.86
2016-07-24T06:11:56.333Z,956.86
2016-07-24T06:12:56.363Z,956.85
2016-07-24T06:13:56.391Z,956.87
2016-07-24T06:14:56.421Z,956.86
2016-07-24T06:15:56.450Z,956.82
2016-07-24T06:16:56.486Z,956.84
2016-07-24T06:17:56.507Z,956.86
2016-07-24T06:18:56.538Z,956.83
2016-07-24T06:19:56.569Z,956.89
2016-07-24T06:20:56.597Z,956.83
2016-07-24T06:21:56.626Z,956.89
2016-07-24T06:22:56.653Z,956.84
2016-07-24T06:23:56.683Z,956.87
2016-07-24T06:24:56.718Z,956.88
2016-07-24T06:25:56.744Z,956.86
2016-07-24T06:26:56.772Z,956.85
2016-07-24T06:27:56.802Z,956.86
2016-07-24T06:28:56.830Z,956.89
2016-07-24T06:29:56.860Z,956.86
2016-07-24T06:30:56.890Z,956.87
2016-07-24T06:31:56.920Z,956.86
2016-07-24T06:32:56.949Z,956.84
2016-07-24T06:33:56.978Z,956.85
2016-07-24T06:34:57.008Z,956.85
2016-07-24T06:35:57.037Z,956.83
2016-07-24T06:36:57.068Z,956.85
2016-07-24T06:37:57.096Z,956.84
2016-07-24T06:38:57.128Z,956.82
2016-07-24T06:39:57.155Z,956.86
2016-07-24T06:40:57.197Z,956.83
2016-07-24T06:41:57.215Z,956.86
2016-07-24T06:42:57.246Z,956.87
2016-07-24T06:43:57.288Z,956.86
2016-07-24T06:44:57.304Z,956.88
2016-07-24T06:45:57.334Z,956.8
2016-07-24T06:46:57.364Z,956.81
2016-07-24T06:47:57.393Z,956.85
2016-07-24T06:48:57.426Z,956.88
2016-07-24T06:49:57.453Z,956.87
2016-07-24T06:50:57.482Z,956.84
2016-07-24T06:51:57.511Z,956.87
2016-07-24T06:52:57.542Z,956.82
2016-07-24T06:53:57.576Z,956.88
2016-07-24T06:54:57.601Z,956.83
2016-07-24T06:55:57.632Z,956.84
2016-07-24T06:56:57.661Z,956.87
2016-07-24T06:57:57.691Z,956.89
2016-07-24T06:58:57.720Z,956.86
2016-07-24T06:59:57.752Z,956.87
2016-07-24T07:00:57.781Z,956.86
2016-07-24T07:01:57.811Z,956.9
2016-07-24T07:02:57.841Z,956.9
2016-07-24T07:03:57.871Z,956.91
2016-07-24T07:04:57.900Z,956.92
2016-07-24T07:05:57.942Z,956.9
2016-07-24T07:06:57.961Z,956.92
2016-07-24T07:07:57.992Z,956.95
2016-07-24T07:08:58.020Z,956.93
2016-07-24T07:09:58.050Z,956.96
2016-07-24T07:10:58.082Z,956.97
2016-07-24T07:11:58.113Z,956.99
2016-07-24T07:12:58.161Z,956.97
2016-07-24T07:13:58.174Z,956.99
2016-07-24T07:14:58.203Z,957
2016-07-24T07:15:58.233Z,956.98
2016-07-24T07:16:58.276Z,956.99
2016-07-24T07:17:58.292Z,957
2016-07-24T07:18:58.323Z,957.03
2016-07-24T07:19:58.353Z,956.97
2016-07-24T07:20:58.384Z,957.02
2016-07-24T07:21:58.437Z,957.02
2016-07-24T07:22:58.445Z,957.04
2016-07-24T07:23:58.474Z,957.05
2016-07-24T07:24:58.504Z,957.06
2016-07-24T07:25:58.537Z,957.04
2016-07-24T07:26:58.565Z,957.05
2016-07-24T07:27:58.598Z,957.06
2016-07-24T07:28:58.627Z,957.05
2016-07-24T07:29:58.659Z,957.02
2016-07-24T07:30:58.689Z,957.08
2016-07-24T07:31:58.720Z,957.03
2016-07-24T07:32:58.750Z,957.03
2016-07-24T07:33:58.781Z,957.03
2016-07-24T07:34:58.816Z,957.05
2016-07-24T07:35:58.842Z,957
2016-07-24T07:36:58.873Z,957.03
2016-07-24T07:37:58.904Z,957.03
2016-07-24T07:38:58.935Z,957.01
2016-07-24T07:39:58.966Z,957.01
2016-07-24T07:40:58.998Z,957.03
2016-07-24T07:41:59.032Z,957.02
2016-07-24T07:42:59.058Z,957.06
2016-07-24T07:43:59.090Z,957.09
2016-07-24T07:44:59.120Z,957.06
2016-07-24T07:45:59.151Z,957.07
2016-07-24T07:46:59.182Z,957.07
2016-07-24T07:47:59.213Z,957.1
2016-07-24T07:48:59.244Z,957.08
2016-07-24T07:49:59.276Z,957.12
2016-07-24T07:50:59.307Z,957.11
2016-07-24T07:51:59.337Z,957.07
2016-07-24T07:52:59.368Z,957.09
2016-07-24T07:53:59.400Z,957.14
2016-07-24T07:54:59.431Z,957.14
2016-07-24T07:55:59.461Z,957.1
2016-07-24T07:56:59.493Z,957.1
2016-07-24T07:57:59.524Z,957.12
2016-07-24T07:58:59.556Z,957.12
2016-07-24T07:59:59.586Z,957.13
2016-07-24T08:00:59.617Z,957.11
2016-07-24T08:01:59.648Z,957.12
2016-07-24T08:02:59.680Z,957.15
2016-07-24T08:03:59.710Z,957.14
2016-07-24T08:04:59.743Z,957.19
2016-07-24T08:05:59.774Z,957.18
2016-07-24T08:06:59.806Z,957.16
2016-07-24T08:07:59.836Z,957.13
2016-07-24T08:08:59.868Z,957.15
2016-07-24T08:09:59.899Z,957.15
2016-07-24T08:10:59.930Z,957.21
2016-07-24T08:11:59.961Z,957.2
2016-07-24T08:12:59.993Z,957.15
2016-07-24T08:14:00.024Z,957.18
2016-07-24T08:15:00.055Z,957.15
2016-07-24T08:16:00.087Z,957.14
2016-07-24T08:17:00.117Z,957.16
2016-07-24T08:18:00.150Z,957.15
2016-07-24T08:19:00.181Z,957.18
2016-07-24T08:20:00.218Z,957.15
2016-07-24T08:21:00.243Z,957.14
2016-07-24T08:22:00.274Z,957.17
2016-07-24T08:23:00.306Z,957.16
2016-07-24T08:24:00.337Z,957.14
2016-07-24T08:25:00.369Z,957.18
2016-07-24T08:26:00.400Z,957.14
2016-07-24T08:27:00.432Z,957.15
2016-07-24T08:28:00.481Z,957.13
2016-07-24T08:29:00.495Z,957.15
2016-07-24T08:30:00.525Z,957.11
2016-07-24T08:31:00.557Z,957.13
2016-07-24T08:32:00.589Z,957.09
2016-07-24T08:33:00.619Z,957.06
2016-07-24T08:34:00.651Z,957.07
2016-07-24T08:35:00.683Z,957.11
2016-07-24T08:36:00.717Z,957.09
2016-07-24T08:37:00.745Z,957.08
2016-07-24T08:38:00.776Z,957.07
2016-07-24T08:39:00.807Z,957.05
2016-07-24T08:40:00.839Z,957.07
2016-07-24T08:41:00.869Z,957.07
2016-07-24T08:42:00.901Z,957.05
2016-07-24T08:43:00.933Z,957.04
2016-07-24T08:44:00.963Z,957.04
2016-07-24T08:45:01.007Z,957.01
2016-07-24T08:46:01.025Z,957.02
2016-07-24T08:47:01.059Z,957.02
2016-07-24T08:48:01.090Z,957.02
2016-07-24T08:49:01.324Z,957
2016-07-24T08:50:01.152Z,956.96
2016-07-24T08:51:01.185Z,956.96
2016-07-24T08:52:01.216Z,957.02
2016-07-24T08:53:01.249Z,957.01
2016-07-24T08:54:01.280Z,956.99
2016-07-24T08:55:01.310Z,957
2016-07-24T08:56:01.343Z,956.93
2016-07-24T08:57:01.374Z,956.89
2016-07-24T08:58:01.407Z,956.91
2016-07-24T08:59:01.437Z,956.94
2016-07-24T09:00:01.470Z,956.95
2016-07-24T09:01:01.503Z,956.98
2016-07-24T09:02:01.534Z,956.97
2016-07-24T09:03:01.565Z,956.96
2016-07-24T09:04:01.597Z,956.95
2016-07-24T09:05:01.631Z,956.94
2016-07-24T09:06:01.660Z,956.9
2016-07-24T09:07:01.693Z,956.9
2016-07-24T09:08:01.820Z,956.88
2016-07-24T09:09:01.779Z,956.91
2016-07-24T09:10:01.789Z,956.88
2016-07-24T09:11:01.820Z,956.87
2016-07-24T09:12:01.851Z,956.91
2016-07-24T09:13:01.885Z,956.92
2016-07-24T09:14:01.916Z,956.9
2016-07-24T09:15:01.951Z,956.85
2016-07-24T09:16:01.981Z,956.88
2016-07-24T09:17:02.014Z,956.88
2016-07-24T09:18:02.044Z,956.86
2016-07-24T09:19:02.081Z,956.88
2016-07-24T09:20:02.112Z,956.85
2016-07-24T09:21:02.149Z,956.88
2016-07-24T09:22:02.175Z,956.85
2016-07-24T09:23:02.220Z,956.87
2016-07-24T09:24:02.239Z,956.84
2016-07-24T09:25:02.271Z,956.79
2016-07-24T09:26:02.308Z,956.78
2016-07-24T09:27:02.337Z,956.76
2016-07-24T09:28:02.368Z,956.76
2016-07-24T09:29:02.400Z,956.76
2016-07-24T09:30:02.433Z,956.79
2016-07-24T09:31:02.465Z,956.8
2016-07-24T09:32:02.496Z,956.81
2016-07-24T09:33:02.528Z,956.83
2016-07-24T09:34:02.562Z,956.81
2016-07-24T09:35:02.616Z,956.81
2016-07-24T09:36:02.627Z,956.82
2016-07-24T09:37:02.659Z,956.82
2016-07-24T09:38:02.691Z,956.8
2016-07-24T09:39:02.723Z,956.79
2016-07-24T09:40:02.756Z,956.79
2016-07-24T09:41:02.789Z,956.81
2016-07-24T09:42:02.822Z,956.72
2016-07-24T09:43:02.854Z,956.76
2016-07-24T09:44:02.887Z,956.74
2016-07-24T09:45:02.920Z,956.78
2016-07-24T09:46:02.952Z,956.71
2016-07-24T09:47:02.983Z,956.74
2016-07-24T09:48:03.017Z,956.75
2016-07-24T09:49:03.051Z,956.74
2016-07-24T09:50:03.084Z,956.74
2016-07-24T09:51:03.116Z,956.69
2016-07-24T09:52:03.150Z,956.69
2016-07-24T09:53:03.181Z,956.7
2016-07-24T09:54:03.213Z,956.69
2016-07-24T09:55:03.246Z,956.67
2016-07-24T09:56:03.280Z,956.7
2016-07-24T09:57:03.312Z,956.71
2016-07-24T09:58:03.344Z,956.73
2016-07-24T09:59:03.376Z,956.71
2016-07-24T10:00:03.421Z,956.7
2016-07-24T10:01:03.441Z,956.73
2016-07-24T10:02:03.475Z,956.68
2016-07-24T10:03:03.508Z,956.73
2016-07-24T10:04:03.541Z,956.66
2016-07-24T10:05:03.572Z,956.68
2016-07-24T10:06:03.605Z,956.64
2016-07-24T10:07:03.638Z,956.63
2016-07-24T10:08:03.670Z,956.66
2016-07-24T10:09:03.703Z,956.64
2016-07-24T10:10:03.737Z,956.69
2016-07-24T10:11:03.771Z,956.67
2016-07-24T10:12:03.802Z,956.68
2016-07-24T10:13:03.836Z,956.68
2016-07-24T10:14:03.868Z,956.66
2016-07-24T10:15:03.903Z,956.63
2016-07-24T10:16:03.935Z,956.59
2016-07-24T10:17:03.967Z,956.63
2016-07-24T10:18:04.005Z,956.59
2016-07-24T10:19:04.033Z,956.61
2016-07-24T10:20:04.066Z,956.63
2016-07-24T10:21:04.099Z,956.63
2016-07-24T10:22:04.133Z,956.63
2016-07-24T10:23:04.165Z,956.6
2016-07-24T10:24:04.198Z,956.63
2016-07-24T10:25:04.232Z,956.62
2016-07-24T10:26:04.265Z,956.66
2016-07-24T10:27:04.297Z,956.64
2016-07-24T10:28:04.330Z,956.64
2016-07-24T10:29:04.364Z,956.62
2016-07-24T10:30:04.396Z,956.6
2016-07-24T10:31:04.430Z,956.63
2016-07-24T10:32:04.462Z,956.63
2016-07-24T10:33:04.502Z,956.62
2016-07-24T10:34:04.530Z,956.61
2016-07-24T10:35:04.563Z,956.59
2016-07-24T10:36:04.595Z,956.6
2016-07-24T10:37:04.629Z,956.54
2016-07-24T10:38:04.663Z,956.53
2016-07-24T10:39:04.697Z,956.55
2016-07-24T10:40:04.732Z,956.51
2016-07-24T10:41:04.763Z,956.55
2016-07-24T10:42:04.813Z,956.49
2016-07-24T10:43:04.830Z,956.5
2016-07-24T10:44:04.864Z,956.55
2016-07-24T10:45:04.896Z,956.51
2016-07-24T10:46:04.930Z,956.54
2016-07-24T10:47:04.963Z,956.49
2016-07-24T10:48:04.997Z,956.48
2016-07-24T10:49:05.057Z,956.51
2016-07-24T10:50:05.064Z,956.52
2016-07-24T10:51:05.098Z,956.52
2016-07-24T10:52:05.332Z,956.47
2016-07-24T10:53:05.164Z,956.5
2016-07-24T10:54:05.198Z,956.52
2016-07-24T10:55:05.232Z,956.51
2016-07-24T10:56:05.263Z,956.49
2016-07-24T10:57:05.297Z,956.49
2016-07-24T10:58:05.331Z,956.5
2016-07-24T10:59:05.365Z,956.49
2016-07-24T11:00:05.399Z,956.44
2016-07-24T11:01:05.432Z,956.49
2016-07-24T11:02:05.466Z,956.5
2016-07-24T11:03:05.499Z,956.46
2016-07-24T11:04:05.533Z,956.49
2016-07-24T11:05:05.566Z,956.49
2016-07-24T11:06:05.601Z,956.48
2016-07-24T11:07:05.636Z,956.49
2016-07-24T11:08:05.665Z,956.5
2016-07-24T11:09:05.701Z,956.5
2016-07-24T11:10:05.733Z,956.53
2016-07-24T11:11:05.769Z,956.51
2016-07-24T11:12:05.803Z,956.5
2016-07-24T11:13:05.836Z,956.52
2016-07-24T11:14:05.868Z,956.51
2016-07-24T11:15:05.907Z,956.51
2016-07-24T11:16:05.937Z,956.55
2016-07-24T11:17:05.971Z,956.52
2016-07-24T11:18:06.004Z,956.51
2016-07-24T11:19:06.039Z,956.5
2016-07-24T11:20:06.073Z,956.53
2016-07-24T11:21:06.106Z,956.53
2016-07-24T11:22:06.140Z,956.52
2016-07-24T11:23:06.174Z,956.5
2016-07-24T11:24:06.207Z,956.51
2016-07-24T11:25:06.239Z,956.49
2016-07-24T11:26:06.274Z,956.52
2016-07-24T11:27:06.307Z,956.52
2016-07-24T11:28:06.345Z,956.51
2016-07-24T11:29:06.373Z,956.52
2016-07-24T11:30:06.408Z,956.54
2016-07-24T11:31:06.441Z,956.47
2016-07-24T11:32:06.482Z,956.46
2016-07-24T11:33:06.507Z,956.45
2016-07-24T11:34:06.542Z,956.51
2016-07-24T11:35:06.576Z,956.5
2016-07-24T11:36:06.609Z,956.45
2016-07-24T11:37:06.643Z,956.49
2016-07-24T11:38:06.677Z,956.48
2016-07-24T11:39:06.710Z,956.51
2016-07-24T11:40:06.743Z,956.49
2016-07-24T11:41:06.791Z,956.5
2016-07-24T11:42:06.812Z,956.49
2016-07-24T11:43:06.844Z,956.47
2016-07-24T11:44:06.879Z,956.44
2016-07-24T11:45:06.912Z,956.44
2016-07-24T11:46:07.149Z,956.41
2016-07-24T11:47:06.980Z,956.44
2016-07-24T11:48:07.013Z,956.43
2016-07-24T11:49:07.069Z,956.41
2016-07-24T11:50:07.083Z,956.38
2016-07-24T11:51:07.116Z,956.41
2016-07-24T11:52:07.149Z,956.35
2016-07-24T11:53:07.183Z,956.35
2016-07-24T11:54:07.217Z,956.38
2016-07-24T11:55:07.251Z,956.38
2016-07-24T11:56:07.286Z,956.36
2016-07-24T11:57:07.319Z,956.35
2016-07-24T11:58:07.353Z,956.37
2016-07-24T11:59:07.386Z,956.3
2016-07-24T12:00:07.421Z,956.33
2016-07-24T12:01:07.457Z,956.32
2016-07-24T12:02:07.490Z,956.33
2016-07-24T12:03:07.535Z,956.3
2016-07-24T12:04:07.558Z,956.34
2016-07-24T12:05:07.593Z,956.31
2016-07-24T12:06:07.626Z,956.27
2016-07-24T12:07:07.662Z,956.29
2016-07-24T12:08:07.696Z,956.31
2016-07-24T12:09:07.729Z,956.29
2016-07-24T12:10:07.763Z,956.31
2016-07-24T12:11:07.797Z,956.32
2016-07-24T12:12:07.832Z,956.33
2016-07-24T12:13:07.866Z,956.31
2016-07-24T12:14:07.901Z,956.22
2016-07-24T12:15:07.935Z,956.27
2016-07-24T12:16:07.969Z,956.27
2016-07-24T12:17:08.001Z,956.25
2016-07-24T12:18:08.037Z,956.26
2016-07-24T12:19:08.071Z,956.24
2016-07-24T12:20:08.108Z,956.31
2016-07-24T12:21:08.140Z,956.27
2016-07-24T12:22:08.180Z,956.3
2016-07-24T12:23:08.216Z,956.26
2016-07-24T12:24:08.247Z,956.28
2016-07-24T12:25:08.279Z,956.28
2016-07-24T12:26:08.314Z,956.28
2016-07-24T12:27:08.347Z,956.27
2016-07-24T12:28:08.383Z,956.26
2016-07-24T12:29:08.418Z,956.27
2016-07-24T12:30:08.454Z,956.29
2016-07-24T12:31:08.486Z,956.21
2016-07-24T12:32:08.522Z,956.26